Weather at London Luton Airport

Public forecast

Using degrees Celsius for public forecast. Weather courtesy of forecast.io.

Current aviation weather report (METAR) for London Luton Airport

Report is more than 6 hours old.

2022/11/14 15:20 (retrieved 2 years ago)

EGGW 141520Z 13004KT 1400 R25/1300D BR OVC001 12/12 Q1006

Aviation forecast (TAF) for London Luton Airport

Forecast is more than 12 hours old.

2023/02/22 18:15 Ammendment (retrieved 1 year ago)

TAF AMD EGGW 221807Z 2218/2318 32009KT 9999 SCT030 BECMG 2222/2301 02012KT BKN008 TEMPO 2300/2305 3000 RADZ BKN003 BECMG 2307/2310 SCT030